BCS761 EKCH-EGKK
Flight info
| Callsign | BCS761 |
|---|---|
| Flight time | N/A |
| Altitude | 40000 |
| Route | ODDON DCT TUSKA DCT LONAM DCT BINBO DCT AKOKO N866 BUKUT P7 BARMI |
| Aircraft | A333/H-SDE3GHIJ2J3J5M1RVWXY/LB2D1 |
Departure
| Time | 2026-04-25 17:07 |
|---|---|
| Airport | Copenhagen Kastrup Airport (EKCH) |
Arrival
| Time | N/A |
|---|---|
| Airport | London Gatwick Airport (EGKK) |
| Time | Latitude | Longitude | Altitude | Speed | Heading |
|---|---|---|---|---|---|
| 2026-04-25 16:43 | 55.61797 | 12.67168 | 28 ft | 0 kts | 79° |
| 2026-04-25 16:54 | 55.61795 | 12.67141 | 28 ft | 4 kts | 83° |
| 2026-04-25 16:55 | 55.61793 | 12.67093 | 28 ft | 4 kts | 92° |
| 2026-04-25 16:55 | 55.61796 | 12.67046 | 28 ft | 4 kts | 106° |
| 2026-04-25 16:55 | 55.61806 | 12.67005 | 28 ft | 4 kts | 137° |
| 2026-04-25 16:55 | 55.61820 | 12.66991 | 28 ft | 1 kts | 169° |
| 2026-04-25 16:56 | 55.61822 | 12.66990 | 28 ft | 0 kts | 169° |
| 2026-04-25 16:59 | 55.61814 | 12.66993 | 28 ft | 6 kts | 169° |
| 2026-04-25 16:59 | 55.61758 | 12.67013 | 28 ft | 10 kts | 169° |
| 2026-04-25 16:59 | 55.61682 | 12.67039 | 28 ft | 13 kts | 169° |
| 2026-04-25 17:00 | 55.61586 | 12.67073 | 28 ft | 16 kts | 169° |
| 2026-04-25 17:00 | 55.61469 | 12.67113 | 28 ft | 18 kts | 169° |
| 2026-04-25 17:00 | 55.61425 | 12.67128 | 28 ft | 1 kts | 171° |
| 2026-04-25 17:00 | 55.61402 | 12.67132 | 28 ft | 5 kts | 176° |
| 2026-04-25 17:01 | 55.61371 | 12.67129 | 28 ft | 0 kts | 187° |
| 2026-04-25 17:01 | 55.61369 | 12.67128 | 28 ft | 2 kts | 189° |
| 2026-04-25 17:01 | 55.61332 | 12.67108 | 28 ft | 8 kts | 202° |
| 2026-04-25 17:02 | 55.61286 | 12.67018 | 29 ft | 10 kts | 261° |
| 2026-04-25 17:02 | 55.61318 | 12.66887 | 28 ft | 14 kts | 303° |
| 2026-04-25 17:02 | 55.61380 | 12.66720 | 28 ft | 19 kts | 303° |
| 2026-04-25 17:02 | 55.61405 | 12.66651 | 28 ft | 21 kts | 303° |
| 2026-04-25 17:03 | 55.61543 | 12.66282 | 27 ft | 31 kts | 303° |
| 2026-04-25 17:03 | 55.61655 | 12.65977 | 29 ft | 28 kts | 303° |
| 2026-04-25 17:03 | 55.61758 | 12.65696 | 29 ft | 27 kts | 303° |
| 2026-04-25 17:03 | 55.61864 | 12.65410 | 31 ft | 29 kts | 303° |
| 2026-04-25 17:04 | 55.61972 | 12.65116 | 26 ft | 26 kts | 303° |
| 2026-04-25 17:04 | 55.61981 | 12.64922 | 27 ft | 15 kts | 226° |
| 2026-04-25 17:04 | 55.61885 | 12.64806 | 27 ft | 18 kts | 214° |
| 2026-04-25 17:04 | 55.61780 | 12.64682 | 27 ft | 19 kts | 214° |
| 2026-04-25 17:05 | 55.61669 | 12.64540 | 28 ft | 19 kts | 230° |
| 2026-04-25 17:05 | 55.61644 | 12.64154 | 30 ft | 14 kts | 264° |
| 2026-04-25 17:05 | 55.61599 | 12.64029 | 30 ft | 7 kts | 220° |
| 2026-04-25 17:06 | 55.61541 | 12.63940 | 29 ft | 39 kts | 221° |
| 2026-04-25 17:06 | 55.61158 | 12.63346 | 31 ft | 105 kts | 221° |
| 2026-04-25 17:06 | 55.60454 | 12.62257 | 30 ft | 162 kts | 221° |
| 2026-04-25 17:06 | 55.59494 | 12.60949 | 580 ft | 175 kts | 220° |
| 2026-04-25 17:07 | 55.58542 | 12.59651 | 1483 ft | 171 kts | 225° |
| 2026-04-25 17:07 | 55.57623 | 12.58266 | 2185 ft | 180 kts | 228° |
| 2026-04-25 17:07 | 55.56642 | 12.56655 | 2515 ft | 202 kts | 235° |
| 2026-04-25 17:07 | 55.56014 | 12.54377 | 2664 ft | 215 kts | 270° |
| 2026-04-25 17:08 | 55.56125 | 12.51747 | 3228 ft | 221 kts | 285° |
| 2026-04-25 17:08 | 55.56403 | 12.49041 | 4067 ft | 226 kts | 285° |
| 2026-04-25 17:08 | 55.56680 | 12.46277 | 4914 ft | 231 kts | 285° |
| 2026-04-25 17:08 | 55.56941 | 12.43451 | 5834 ft | 234 kts | 284° |
| 2026-04-25 17:09 | 55.57189 | 12.40588 | 6717 ft | 237 kts | 284° |
| 2026-04-25 17:09 | 55.57431 | 12.37683 | 7655 ft | 240 kts | 283° |
| 2026-04-25 17:09 | 55.57669 | 12.34755 | 8604 ft | 242 kts | 284° |
| 2026-04-25 17:09 | 55.57890 | 12.31789 | 9534 ft | 245 kts | 281° |
| 2026-04-25 17:10 | 55.58029 | 12.28754 | 10317 ft | 253 kts | 280° |
| 2026-04-25 17:10 | 55.58150 | 12.25525 | 10700 ft | 273 kts | 279° |
| 2026-04-25 17:10 | 55.58266 | 12.22077 | 11239 ft | 286 kts | 279° |
| 2026-04-25 17:10 | 55.58373 | 12.18587 | 12050 ft | 289 kts | 279° |
| 2026-04-25 17:11 | 55.58479 | 12.15045 | 13004 ft | 288 kts | 280° |
| 2026-04-25 17:11 | 55.58586 | 12.11510 | 13917 ft | 288 kts | 280° |
| 2026-04-25 17:11 | 55.58692 | 12.07978 | 14742 ft | 288 kts | 281° |
| 2026-04-25 17:11 | 55.58799 | 12.04445 | 15574 ft | 288 kts | 281° |
| 2026-04-25 17:12 | 55.58905 | 12.00911 | 16409 ft | 288 kts | 281° |
| 2026-04-25 17:12 | 55.59011 | 11.97369 | 17245 ft | 288 kts | 282° |
| 2026-04-25 17:12 | 55.59116 | 11.93828 | 18071 ft | 288 kts | 282° |
| 2026-04-25 17:12 | 55.59222 | 11.90275 | 18745 ft | 290 kts | 282° |
| 2026-04-25 17:13 | 55.59328 | 11.86689 | 19321 ft | 294 kts | 282° |
| 2026-04-25 17:13 | 55.59399 | 11.84290 | 19690 ft | 297 kts | 282° |
| 2026-04-25 17:13 | 55.59540 | 11.79358 | 20394 ft | 302 kts | 283° |
| 2026-04-25 17:13 | 55.59646 | 11.75611 | 20925 ft | 307 kts | 283° |
| 2026-04-25 17:14 | 55.59753 | 11.71812 | 21476 ft | 311 kts | 283° |
| 2026-04-25 17:14 | 55.59857 | 11.68034 | 22067 ft | 313 kts | 283° |
| 2026-04-25 17:14 | 55.59961 | 11.64172 | 22641 ft | 316 kts | 283° |
| 2026-04-25 17:14 | 55.60066 | 11.60264 | 23209 ft | 319 kts | 283° |
| 2026-04-25 17:15 | 55.60170 | 11.56333 | 23708 ft | 322 kts | 283° |
| 2026-04-25 17:15 | 55.60275 | 11.52352 | 24140 ft | 325 kts | 283° |
| 2026-04-25 17:15 | 55.60379 | 11.48343 | 24576 ft | 328 kts | 283° |
| 2026-04-25 17:15 | 55.60483 | 11.44291 | 25013 ft | 330 kts | 283° |
| 2026-04-25 17:16 | 55.60573 | 11.40274 | 25444 ft | 335 kts | 282° |
| 2026-04-25 17:16 | 55.60527 | 11.36054 | 25863 ft | 342 kts | 279° |
| 2026-04-25 17:16 | 55.60406 | 11.31890 | 26288 ft | 345 kts | 278° |
| 2026-04-25 17:16 | 55.60266 | 11.27582 | 26703 ft | 348 kts | 278° |
| 2026-04-25 17:17 | 55.60127 | 11.23352 | 27098 ft | 350 kts | 278° |
| 2026-04-25 17:17 | 55.59985 | 11.19022 | 27321 ft | 356 kts | 278° |
| 2026-04-25 17:17 | 55.59842 | 11.14614 | 27635 ft | 361 kts | 278° |
| 2026-04-25 17:17 | 55.59692 | 11.10176 | 28059 ft | 363 kts | 278° |
| 2026-04-25 17:18 | 55.59540 | 11.05702 | 28499 ft | 365 kts | 278° |
| 2026-04-25 17:18 | 55.59387 | 11.01212 | 28897 ft | 367 kts | 278° |
| 2026-04-25 17:18 | 55.59231 | 10.96680 | 29292 ft | 370 kts | 278° |
| 2026-04-25 17:18 | 55.59073 | 10.92115 | 29680 ft | 372 kts | 278° |
| 2026-04-25 17:19 | 55.58913 | 10.87536 | 30053 ft | 375 kts | 278° |
| 2026-04-25 17:19 | 55.58749 | 10.82910 | 30352 ft | 378 kts | 278° |
| 2026-04-25 17:19 | 55.58582 | 10.78245 | 30657 ft | 381 kts | 278° |
| 2026-04-25 17:19 | 55.58413 | 10.73559 | 30965 ft | 384 kts | 277° |
| 2026-04-25 17:20 | 55.58217 | 10.68830 | 31280 ft | 390 kts | 275° |
| 2026-04-25 17:20 | 55.57763 | 10.64031 | 31582 ft | 404 kts | 269° |
| 2026-04-25 17:20 | 55.56992 | 10.59257 | 31884 ft | 412 kts | 265° |
| 2026-04-25 17:20 | 55.56093 | 10.54409 | 32181 ft | 417 kts | 264° |
| 2026-04-25 17:21 | 55.55132 | 10.49559 | 32609 ft | 418 kts | 263° |
| 2026-04-25 17:21 | 55.54149 | 10.44729 | 33061 ft | 418 kts | 263° |
| 2026-04-25 17:21 | 55.53163 | 10.39901 | 33468 ft | 417 kts | 263° |
| 2026-04-25 17:21 | 55.52184 | 10.35081 | 33868 ft | 417 kts | 263° |
| 2026-04-25 17:22 | 55.51213 | 10.30262 | 34193 ft | 416 kts | 263° |
| 2026-04-25 17:22 | 55.50575 | 10.27075 | 34388 ft | 417 kts | 263° |
| 2026-04-25 17:22 | 55.49286 | 10.20617 | 34778 ft | 417 kts | 263° |
| 2026-04-25 17:22 | 55.48322 | 10.15780 | 35064 ft | 418 kts | 262° |
| 2026-04-25 17:23 | 55.47355 | 10.10941 | 35343 ft | 419 kts | 262° |
| 2026-04-25 17:23 | 55.46386 | 10.06104 | 35629 ft | 419 kts | 262° |
| 2026-04-25 17:23 | 55.45410 | 10.01244 | 35776 ft | 422 kts | 262° |
| 2026-04-25 17:23 | 55.44425 | 9.96337 | 35888 ft | 427 kts | 261° |
| 2026-04-25 17:24 | 55.43431 | 9.91410 | 36166 ft | 427 kts | 261° |
| 2026-04-25 17:24 | 55.42429 | 9.86479 | 36472 ft | 427 kts | 261° |
| 2026-04-25 17:24 | 55.41425 | 9.81552 | 36745 ft | 428 kts | 261° |
| 2026-04-25 17:24 | 55.40431 | 9.76681 | 37026 ft | 428 kts | 260° |
| 2026-04-25 17:25 | 55.39423 | 9.71753 | 37220 ft | 429 kts | 260° |
| 2026-04-25 17:25 | 55.38411 | 9.66807 | 37447 ft | 430 kts | 259° |
| 2026-04-25 17:25 | 55.37394 | 9.61853 | 37694 ft | 430 kts | 259° |
| 2026-04-25 17:25 | 55.36376 | 9.56904 | 37949 ft | 431 kts | 259° |
| 2026-04-25 17:26 | 55.35353 | 9.51945 | 38194 ft | 431 kts | 259° |
| 2026-04-25 17:26 | 55.34328 | 9.46990 | 38446 ft | 432 kts | 259° |
| 2026-04-25 17:26 | 55.33299 | 9.42026 | 38593 ft | 433 kts | 259° |
| 2026-04-25 17:26 | 55.32261 | 9.37014 | 38611 ft | 439 kts | 259° |
| 2026-04-25 17:27 | 55.31213 | 9.31971 | 38780 ft | 440 kts | 259° |
| 2026-04-25 17:27 | 55.30159 | 9.26930 | 39011 ft | 439 kts | 258° |
| 2026-04-25 17:27 | 55.29104 | 9.21908 | 39257 ft | 438 kts | 258° |
| 2026-04-25 17:27 | 55.28748 | 9.20215 | 39339 ft | 437 kts | 258° |
| 2026-04-25 17:28 | 55.26997 | 9.11902 | 39701 ft | 436 kts | 258° |
| 2026-04-25 17:28 | 55.25945 | 9.06919 | 39901 ft | 436 kts | 258° |
| 2026-04-25 17:28 | 55.24888 | 9.01919 | 40011 ft | 438 kts | 258° |
| 2026-04-25 17:28 | 55.23840 | 8.96965 | 40025 ft | 439 kts | 258° |
| 2026-04-25 17:29 | 55.21704 | 8.86918 | 40022 ft | 439 kts | 257° |
| 2026-04-25 17:29 | 55.19558 | 8.76882 | 40025 ft | 441 kts | 257° |
| 2026-04-25 17:30 | 55.17394 | 8.66805 | 40035 ft | 443 kts | 257° |
| 2026-04-25 17:30 | 55.15231 | 8.56796 | 40061 ft | 443 kts | 257° |
| 2026-04-25 17:31 | 55.13046 | 8.46730 | 40061 ft | 443 kts | 257° |
| 2026-04-25 17:31 | 55.10850 | 8.36659 | 40069 ft | 443 kts | 257° |
| 2026-04-25 17:32 | 55.08645 | 8.26594 | 40077 ft | 443 kts | 256° |
| 2026-04-25 17:32 | 55.06443 | 8.16592 | 40082 ft | 444 kts | 256° |
| 2026-04-25 17:33 | 55.04217 | 8.06529 | 40085 ft | 445 kts | 256° |
| 2026-04-25 17:33 | 55.01980 | 7.96467 | 40086 ft | 445 kts | 256° |
| 2026-04-25 17:34 | 54.99705 | 7.86428 | 40095 ft | 446 kts | 253° |
| 2026-04-25 17:34 | 54.97114 | 7.76569 | 40107 ft | 449 kts | 251° |
| 2026-04-25 17:35 | 54.94391 | 7.66802 | 40109 ft | 449 kts | 251° |
| 2026-04-25 17:35 | 54.91670 | 7.57023 | 40123 ft | 450 kts | 251° |
| 2026-04-25 17:36 | 54.88958 | 7.47207 | 40120 ft | 450 kts | 251° |
| 2026-04-25 17:36 | 54.86262 | 7.37447 | 40130 ft | 451 kts | 251° |
| 2026-04-25 17:37 | 54.83543 | 7.27637 | 40135 ft | 451 kts | 251° |
| 2026-04-25 17:37 | 54.80815 | 7.17843 | 40134 ft | 451 kts | 251° |
| 2026-04-25 17:38 | 54.79003 | 7.11361 | 40124 ft | 450 kts | 250° |
| 2026-04-25 17:38 | 54.75361 | 6.98396 | 40146 ft | 449 kts | 250° |
| 2026-04-25 17:39 | 54.72619 | 6.88674 | 40158 ft | 449 kts | 250° |
| 2026-04-25 17:39 | 54.69872 | 6.78975 | 40157 ft | 449 kts | 249° |
| 2026-04-25 17:40 | 54.67113 | 6.69278 | 40165 ft | 449 kts | 249° |
| 2026-04-25 17:40 | 54.64345 | 6.59590 | 40164 ft | 449 kts | 249° |
| 2026-04-25 17:41 | 54.61572 | 6.49922 | 40166 ft | 450 kts | 249° |
| 2026-04-25 17:41 | 54.58790 | 6.40262 | 40175 ft | 450 kts | 249° |
| 2026-04-25 17:42 | 54.56026 | 6.30713 | 40177 ft | 446 kts | 248° |
| 2026-04-25 17:42 | 54.53261 | 6.21200 | 40186 ft | 443 kts | 248° |
| 2026-04-25 17:43 | 54.50494 | 6.11707 | 40187 ft | 443 kts | 248° |
| 2026-04-25 17:43 | 54.47722 | 6.02234 | 40186 ft | 444 kts | 248° |
| 2026-04-25 17:44 | 54.44937 | 5.92756 | 40195 ft | 444 kts | 248° |
| 2026-04-25 17:44 | 54.42145 | 5.83296 | 40192 ft | 443 kts | 247° |
| 2026-04-25 17:45 | 54.40293 | 5.77043 | 40202 ft | 443 kts | 247° |
| 2026-04-25 17:45 | 54.36563 | 5.64498 | 40188 ft | 443 kts | 247° |
| 2026-04-25 17:46 | 54.33758 | 5.55111 | 40203 ft | 442 kts | 247° |
| 2026-04-25 17:46 | 54.30948 | 5.45739 | 40208 ft | 441 kts | 247° |
| 2026-04-25 17:47 | 54.28137 | 5.36401 | 40211 ft | 441 kts | 247° |
| 2026-04-25 17:47 | 54.25335 | 5.27129 | 40210 ft | 442 kts | 246° |
| 2026-04-25 17:48 | 54.21079 | 5.13115 | 40219 ft | 443 kts | 246° |
| 2026-04-25 17:49 | 54.18230 | 5.03782 | 40219 ft | 443 kts | 246° |
| 2026-04-25 17:49 | 54.15370 | 4.94449 | 40219 ft | 443 kts | 246° |
| 2026-04-25 17:50 | 54.12509 | 4.85148 | 40222 ft | 443 kts | 246° |
| 2026-04-25 17:50 | 54.10129 | 4.77439 | 40222 ft | 442 kts | 246° |
| 2026-04-25 17:51 | 54.07258 | 4.68172 | 40221 ft | 442 kts | 246° |
| 2026-04-25 17:51 | 54.03915 | 4.57423 | 40229 ft | 442 kts | 246° |
| 2026-04-25 17:52 | 54.01514 | 4.49736 | 40231 ft | 442 kts | 245° |
| 2026-04-25 17:52 | 53.98622 | 4.40508 | 40232 ft | 442 kts | 245° |
| 2026-04-25 17:53 | 53.95722 | 4.31289 | 40230 ft | 442 kts | 245° |
| 2026-04-25 17:53 | 53.92813 | 4.22078 | 40231 ft | 442 kts | 245° |
| 2026-04-25 17:54 | 53.89905 | 4.12903 | 40239 ft | 440 kts | 245° |
| 2026-04-25 17:54 | 53.87000 | 4.03776 | 40236 ft | 439 kts | 245° |
| 2026-04-25 17:55 | 53.83761 | 3.95000 | 40238 ft | 443 kts | 234° |
| 2026-04-25 17:55 | 53.79311 | 3.87672 | 40244 ft | 448 kts | 224° |
| 2026-04-25 17:56 | 53.74527 | 3.80981 | 40240 ft | 450 kts | 223° |
| 2026-04-25 17:56 | 53.69738 | 3.74479 | 40240 ft | 450 kts | 222° |
| 2026-04-25 17:57 | 53.64871 | 3.67847 | 40239 ft | 449 kts | 222° |
| 2026-04-25 17:57 | 53.60033 | 3.61223 | 40236 ft | 447 kts | 222° |
| 2026-04-25 17:58 | 53.55209 | 3.54617 | 40248 ft | 447 kts | 222° |
| 2026-04-25 17:58 | 53.50380 | 3.48023 | 40250 ft | 447 kts | 222° |
| 2026-04-25 17:59 | 53.45548 | 3.41447 | 40248 ft | 447 kts | 222° |
| 2026-04-25 17:59 | 53.40648 | 3.35021 | 40242 ft | 449 kts | 216° |
| 2026-04-25 18:00 | 53.35190 | 3.29834 | 40240 ft | 452 kts | 211° |
| 2026-04-25 18:00 | 53.29620 | 3.25057 | 40230 ft | 452 kts | 210° |
| 2026-04-25 18:01 | 53.23995 | 3.20338 | 40227 ft | 452 kts | 210° |
| 2026-04-25 18:01 | 53.18362 | 3.15598 | 40222 ft | 452 kts | 210° |
| 2026-04-25 18:02 | 53.12752 | 3.10862 | 39479 ft | 455 kts | 210° |
| 2026-04-25 18:02 | 53.09914 | 3.08468 | 38734 ft | 460 kts | 209° |
| 2026-04-25 18:02 | 53.07047 | 3.06054 | 38055 ft | 461 kts | 209° |
| 2026-04-25 18:02 | 53.04225 | 3.03686 | 37524 ft | 459 kts | 208° |
| 2026-04-25 18:03 | 53.01379 | 3.01303 | 36977 ft | 457 kts | 209° |
| 2026-04-25 18:03 | 52.98539 | 2.98929 | 36412 ft | 456 kts | 208° |
| 2026-04-25 18:03 | 52.95699 | 2.96556 | 35804 ft | 456 kts | 208° |
| 2026-04-25 18:03 | 52.92854 | 2.94184 | 35171 ft | 457 kts | 208° |
| 2026-04-25 18:04 | 52.90012 | 2.91816 | 34511 ft | 459 kts | 208° |
| 2026-04-25 18:04 | 52.87155 | 2.89440 | 33782 ft | 460 kts | 208° |
| 2026-04-25 18:04 | 52.84282 | 2.87054 | 33068 ft | 461 kts | 208° |
| 2026-04-25 18:04 | 52.81414 | 2.84676 | 32362 ft | 461 kts | 208° |
| 2026-04-25 18:05 | 52.78543 | 2.82300 | 31771 ft | 459 kts | 208° |
| 2026-04-25 18:05 | 52.75704 | 2.79954 | 31321 ft | 454 kts | 208° |
| 2026-04-25 18:05 | 52.72893 | 2.77631 | 30840 ft | 450 kts | 208° |
| 2026-04-25 18:05 | 52.70144 | 2.75362 | 30349 ft | 446 kts | 208° |
| 2026-04-25 18:06 | 52.67346 | 2.73056 | 29800 ft | 442 kts | 208° |
| 2026-04-25 18:06 | 52.64615 | 2.70808 | 29304 ft | 437 kts | 208° |
| 2026-04-25 18:06 | 52.61941 | 2.68610 | 28806 ft | 432 kts | 208° |
| 2026-04-25 18:06 | 52.59265 | 2.66414 | 28316 ft | 428 kts | 208° |
| 2026-04-25 18:07 | 52.56617 | 2.64243 | 27835 ft | 424 kts | 208° |
| 2026-04-25 18:07 | 52.53988 | 2.62091 | 27360 ft | 419 kts | 208° |
| 2026-04-25 18:07 | 52.51385 | 2.59962 | 26869 ft | 416 kts | 208° |
| 2026-04-25 18:07 | 52.48803 | 2.57853 | 26423 ft | 414 kts | 208° |
| 2026-04-25 18:08 | 52.46227 | 2.55752 | 26162 ft | 414 kts | 208° |
| 2026-04-25 18:08 | 52.43642 | 2.53648 | 26035 ft | 414 kts | 208° |